Sv.knyaz Vladimir — UBKI2 — position and weather

sailwx.info

Track history (hours):
 
Tides and Currents Weather Stations Pressure Air Temp Water Temp Dewpoint Dewpoint Depression Visibility Wind Speed Wind Dir Waves Ship Positions

Sv.knyaz Vladimir

Last reported at 2016-Dec-01 21:06 UTC. Time now 2016-Dec-03 00:19 UTC.
Position N 45°33' E 036°49'.

Length 128 m; draft 3 m.

Type: Cargo ship. MMSI: 273350360.

Date/timePositionNaut miles runAvg speedWind from/ knotsBaromVisibWave heightAir tempDewpointWater temp
2016-Dec-01 21:06N 45°33' E 036°49'4 7.6
2016-Dec-01 20:33N 45°30' E 036°47'8 7.6
2016-Dec-01 19:33N 45°23' E 036°41'7 7.0
2016-Dec-01 18:33N 45°19' E 036°33'6 5.7
2016-Dec-01 17:33N 45°14' E 036°29'3 3.3
2016-Dec-01 16:33N 45°11' E 036°31'0 0.1
2016-Dec-01 15:26N 45°11' E 036°31'0 0.0
2016-Dec-01 14:20N 45°11' E 036°31'0 0.0
2016-Dec-01 13:32N 45°11' E 036°31'4 4.2
2016-Dec-01 12:30N 45°08' E 036°34'0 0.0
2016-Dec-01 11:33N 45°08' E 036°34'0 0.0
2016-Dec-01 08:32N 45°08' E 036°34'0 0.0
2016-Dec-01 07:29N 45°08' E 036°34'0 0.0
2016-Dec-01 06:08N 45°08' E 036°34'0 0.0
2016-Dec-01 04:17N 45°08' E 036°34'0 0.0
2016-Dec-01 03:26N 45°08' E 036°34'0 0.0
2016-Dec-01 02:32N 45°08' E 036°34'0 0.0
2016-Dec-01 01:29N 45°08' E 036°34'0 0.0
2016-Dec-01 00:29N 45°08' E 036°34'0 0.0
2016-Nov-30 23:32N 45°08' E 036°34'0 0.0
2016-Nov-30 22:29N 45°08' E 036°34'0 0.0
2016-Nov-30 21:15N 45°08' E 036°34'0 0.0
2016-Nov-30 20:33N 45°08' E 036°34'0 0.0
2016-Nov-30 19:27N 45°08' E 036°34'0 0.0
2016-Nov-30 18:30N 45°08' E 036°34'0 0.0
2016-Nov-30 17:33N 45°08' E 036°34'0 0.0
2016-Nov-30 16:31N 45°08' E 036°34'0 0.0
2016-Nov-30 15:21N 45°08' E 036°34'0 0.0
2016-Nov-30 14:30N 45°08' E 036°34'0 0.0
2016-Nov-30 13:33N 45°08' E 036°34'0 0.0
2016-Nov-30 12:33N 45°08' E 036°34'0 0.0
2016-Nov-30 11:33N 45°08' E 036°34'0 0.0
2016-Nov-30 10:33N 45°08' E 036°34'0 0.0
2016-Nov-30 09:26N 45°08' E 036°34'1 0.8
2016-Nov-30 08:33N 45°08' E 036°35'0 0.0
2016-Nov-30 07:30N 45°08' E 036°35'0 0.0
2016-Nov-30 06:30N 45°08' E 036°35'0 0.0
2016-Nov-30 05:27N 45°08' E 036°35'0 0.0
2016-Nov-30 04:30N 45°08' E 036°35'0 0.0
2016-Nov-30 03:33N 45°08' E 036°35'0 0.0
2016-Nov-30 02:24N 45°08' E 036°35'0 0.0
2016-Nov-30 01:22N 45°08' E 036°35'0 0.0
2016-Nov-30 00:18N 45°08' E 036°35'0 0.0
2016-Nov-29 23:29N 45°08' E 036°35'0 0.0
2016-Nov-29 22:28N 45°08' E 036°35'0 0.0
2016-Nov-29 14:06N 45°08' E 036°35'4 6.3
2016-Nov-29 13:26N 45°09' E 036°29'6 7.2
2016-Nov-29 12:33N 45°15' E 036°28'7 6.6
2016-Nov-29 11:33N 45°20' E 036°34'7 6.9
2016-Nov-29 10:33N 45°25' E 036°41'5 4.9
2016-Nov-29 09:33N 45°30' E 036°38'1 0.6
2016-Nov-29 08:31N 45°30' E 036°37'0 0.0
2016-Nov-29 07:28N 45°30' E 036°37'0 0.0
2016-Nov-29 06:31N 45°30' E 036°37'0 0.0
2016-Nov-29 05:28N 45°30' E 036°37'0 0.0
2016-Nov-29 04:33N 45°30' E 036°37'0 0.0
2016-Nov-29 03:33N 45°30' E 036°37'0 0.0
2016-Nov-29 02:33N 45°30' E 036°37'0 0.0
2016-Nov-29 01:33N 45°30' E 036°37'0 0.0
2016-Nov-28 23:31N 45°30' E 036°37'0 0.0
2016-Nov-28 22:10N 45°30' E 036°37'0 0.0
2016-Nov-28 21:22N 45°30' E 036°37'0 0.0
2016-Nov-28 20:34N 45°30' E 036°37'0 0.0
2016-Nov-28 19:33N 45°30' E 036°37'0 0.0
2016-Nov-28 18:33N 45°30' E 036°37'1 0.9
2016-Nov-28 17:34N 45°30' E 036°38'  
2016-Nov-24 03:29N 45°25' E 036°41'6 6.2
2016-Nov-24 02:33N 45°20' E 036°36'10 1.0
2016-Nov-23 16:12N 45°11' E 036°30'0 0.0
2016-Nov-23 15:32N 45°11' E 036°30'0 0.0
2016-Nov-23 14:34N 45°11' E 036°30'0 0.0
2016-Nov-23 13:33N 45°11' E 036°30'0 0.0
2016-Nov-23 12:33N 45°11' E 036°30'0 0.0
2016-Nov-23 11:34N 45°11' E 036°30'0 0.0
2016-Nov-23 10:34N 45°11' E 036°30'0 0.0
2016-Nov-23 09:33N 45°11' E 036°30'1 0.9
2016-Nov-23 08:28N 45°10' E 036°31'1 0.9
2016-Nov-23 07:25N 45°10' E 036°32'0 0.0
2016-Nov-23 06:23N 45°10' E 036°32'0 0.0
2016-Nov-23 02:20N 45°10' E 036°32'  
Track history (hours):
 
Tides and Currents Weather Stations Pressure Air Temp Water Temp Dewpoint Dewpoint Depression Visibility Wind Speed Wind Dir Waves Ship Positions

Sv.knyaz Vladimir

Last reported at 2016-Dec-01 21:06 UTC. Time now 2016-Dec-03 00:19 UTC.
Position N 45°33' E 036°49'.

Length 128 m; draft 3 m.

Type: Cargo ship. MMSI: 273350360.

Date/timePositionNaut miles runAvg speedWind from/ knotsBaromVisibWave heightAir tempDewpointWater temp
2016-Dec-01 21:06N 45°33' E 036°49'4 7.6
2016-Dec-01 20:33N 45°30' E 036°47'8 7.6
2016-Dec-01 19:33N 45°23' E 036°41'7 7.0
2016-Dec-01 18:33N 45°19' E 036°33'6 5.7
2016-Dec-01 17:33N 45°14' E 036°29'3 3.3
2016-Dec-01 16:33N 45°11' E 036°31'0 0.1
2016-Dec-01 15:26N 45°11' E 036°31'0 0.0
2016-Dec-01 14:20N 45°11' E 036°31'0 0.0
2016-Dec-01 13:32N 45°11' E 036°31'4 4.2
2016-Dec-01 12:30N 45°08' E 036°34'0 0.0
2016-Dec-01 11:33N 45°08' E 036°34'0 0.0
2016-Dec-01 08:32N 45°08' E 036°34'0 0.0
2016-Dec-01 07:29N 45°08' E 036°34'0 0.0
2016-Dec-01 06:08N 45°08' E 036°34'0 0.0
2016-Dec-01 04:17N 45°08' E 036°34'0 0.0
2016-Dec-01 03:26N 45°08' E 036°34'0 0.0
2016-Dec-01 02:32N 45°08' E 036°34'0 0.0
2016-Dec-01 01:29N 45°08' E 036°34'0 0.0
2016-Dec-01 00:29N 45°08' E 036°34'0 0.0
2016-Nov-30 23:32N 45°08' E 036°34'0 0.0
2016-Nov-30 22:29N 45°08' E 036°34'0 0.0
2016-Nov-30 21:15N 45°08' E 036°34'0 0.0
2016-Nov-30 20:33N 45°08' E 036°34'0 0.0
2016-Nov-30 19:27N 45°08' E 036°34'0 0.0
2016-Nov-30 18:30N 45°08' E 036°34'0 0.0
2016-Nov-30 17:33N 45°08' E 036°34'0 0.0
2016-Nov-30 16:31N 45°08' E 036°34'0 0.0
2016-Nov-30 15:21N 45°08' E 036°34'0 0.0
2016-Nov-30 14:30N 45°08' E 036°34'0 0.0
2016-Nov-30 13:33N 45°08' E 036°34'0 0.0
2016-Nov-30 12:33N 45°08' E 036°34'0 0.0
2016-Nov-30 11:33N 45°08' E 036°34'0 0.0
2016-Nov-30 10:33N 45°08' E 036°34'0 0.0
2016-Nov-30 09:26N 45°08' E 036°34'1 0.8
2016-Nov-30 08:33N 45°08' E 036°35'0 0.0
2016-Nov-30 07:30N 45°08' E 036°35'0 0.0
2016-Nov-30 06:30N 45°08' E 036°35'0 0.0
2016-Nov-30 05:27N 45°08' E 036°35'0 0.0
2016-Nov-30 04:30N 45°08' E 036°35'0 0.0
2016-Nov-30 03:33N 45°08' E 036°35'0 0.0
2016-Nov-30 02:24N 45°08' E 036°35'0 0.0
2016-Nov-30 01:22N 45°08' E 036°35'0 0.0
2016-Nov-30 00:18N 45°08' E 036°35'0 0.0
2016-Nov-29 23:29N 45°08' E 036°35'0 0.0
2016-Nov-29 22:28N 45°08' E 036°35'0 0.0
2016-Nov-29 14:06N 45°08' E 036°35'4 6.3
2016-Nov-29 13:26N 45°09' E 036°29'6 7.2
2016-Nov-29 12:33N 45°15' E 036°28'7 6.6
2016-Nov-29 11:33N 45°20' E 036°34'7 6.9
2016-Nov-29 10:33N 45°25' E 036°41'5 4.9
2016-Nov-29 09:33N 45°30' E 036°38'1 0.6
2016-Nov-29 08:31N 45°30' E 036°37'0 0.0
2016-Nov-29 07:28N 45°30' E 036°37'0 0.0
2016-Nov-29 06:31N 45°30' E 036°37'0 0.0
2016-Nov-29 05:28N 45°30' E 036°37'0 0.0
2016-Nov-29 04:33N 45°30' E 036°37'0 0.0
2016-Nov-29 03:33N 45°30' E 036°37'0 0.0
2016-Nov-29 02:33N 45°30' E 036°37'0 0.0
2016-Nov-29 01:33N 45°30' E 036°37'0 0.0
2016-Nov-28 23:31N 45°30' E 036°37'0 0.0
2016-Nov-28 22:10N 45°30' E 036°37'0 0.0
2016-Nov-28 21:22N 45°30' E 036°37'0 0.0
2016-Nov-28 20:34N 45°30' E 036°37'0 0.0
2016-Nov-28 19:33N 45°30' E 036°37'0 0.0
2016-Nov-28 18:33N 45°30' E 036°37'1 0.9
2016-Nov-28 17:34N 45°30' E 036°38'  
2016-Nov-24 03:29N 45°25' E 036°41'6 6.2
2016-Nov-24 02:33N 45°20' E 036°36'10 1.0
2016-Nov-23 16:12N 45°11' E 036°30'0 0.0
2016-Nov-23 15:32N 45°11' E 036°30'0 0.0
2016-Nov-23 14:34N 45°11' E 036°30'0 0.0
2016-Nov-23 13:33N 45°11' E 036°30'0 0.0
2016-Nov-23 12:33N 45°11' E 036°30'0 0.0
2016-Nov-23 11:34N 45°11' E 036°30'0 0.0
2016-Nov-23 10:34N 45°11' E 036°30'0 0.0
2016-Nov-23 09:33N 45°11' E 036°30'1 0.9
2016-Nov-23 08:28N 45°10' E 036°31'1 0.9
2016-Nov-23 07:25N 45°10' E 036°32'0 0.0
2016-Nov-23 06:23N 45°10' E 036°32'0 0.0
2016-Nov-23 02:20N 45°10' E 036°32'  

Dump ship's entire track history